Eveleth, MN

1:17 AM CDT on April 21, 2018 (GMT -0500)
Eveleth-Virginia Municipal

Weather History for KEVM - February, 2013

Change the Weather History Date:

Thursday, February 21, 2013

  Actual Average Record
Temperature  
Mean Temperature 6 °F -  
Max Temperature 26 °F 26 °F 50 °F (2017)
Min Temperature -14 °F 6 °F -23 °F (2008)
Degree Days  
Heating Degree Days 59    
Moisture  
Dew Point 1 °F    
Average Humidity 68    
Maximum Humidity 93    
Minimum Humidity 43    
Precipitation  
Precipitation 0.00 in - - ()
Sea Level Pressure  
Sea Level Pressure 30.36 in    
Wind  
Wind Speed 4 mph (East)    
Max Wind Speed 10 mph    
Max Gust Speed -    
Visibility 10 miles    
Events Snow    
Averages and records for this station are not official NWS values.
T = Trace of Precipitation, MM = Missing Value Source: NWS Daily Summary

Daily Weather History Graph

Daily Weather History Graph

Search for Another Location

Airport or City:

Astronomy

Feb. 21, 2013 Rise Set
Actual Time 7:04 AM CST 5:43 PM CST
Civil Twilight 6:33 AM CST 6:14 PM CST
Nautical Twilight 5:57 AM CST 6:50 PM CST
Astronomical Twilight 5:22 AM CST 7:25 PM CST
Moon 1:48 PM CST 4:20 AM CST
Length of Visible Light 11h 41m
Length of Day
10h 38m
Waxing Gibbous, 84% of the Moon is Illuminated
Feb 21
Waxing Gibbous
Feb 25
Full
Mar 4
Last Quarter
Mar 11
New
Mar 19
First Quarter

Hourly Weather History & Observations

Time (CST) Temp. Windchill Dew Point Humidity Pressure Visibility Wind Dir Wind Speed Gust Speed Precip Events Conditions
12:09 AM -7.6 °F - -16.6 °F 65% 30.40 in 10.0 mi Calm Calm - N/A   Clear
12:30 AM -7.6 °F - -14.8 °F 71% 30.40 in 10.0 mi Calm Calm - N/A   Clear
12:49 AM -5.8 °F - -13.0 °F 71% 30.42 in 10.0 mi Calm Calm - N/A   Clear
1:09 AM -7.6 °F - -14.8 °F 71% 30.42 in 10.0 mi Calm Calm - N/A   Clear
1:29 AM -7.6 °F -16.5 °F -14.8 °F 71% 30.43 in 10.0 mi NE 3.5 mph - N/A   Clear
1:49 AM -7.6 °F -18.8 °F -14.8 °F 71% 30.43 in 10.0 mi NE 4.6 mph - N/A   Clear
2:10 AM -5.8 °F -16.7 °F -13.0 °F 71% 30.43 in 10.0 mi NE 4.6 mph - N/A   Clear
2:29 AM -4.0 °F -16.3 °F -14.8 °F 60% 30.43 in 10.0 mi NE 5.8 mph - N/A   Clear
2:49 AM -2.2 °F -12.5 °F -13.0 °F 60% 30.43 in 10.0 mi NE 4.6 mph - N/A   Clear
3:10 AM -2.2 °F -16.8 °F -13.0 °F 60% 30.42 in 10.0 mi NE 8.1 mph - N/A   Clear
3:29 AM -2.2 °F -14.2 °F -13.0 °F 60% 30.42 in 10.0 mi NE 5.8 mph - N/A   Clear
3:49 AM -2.2 °F -15.6 °F -13.0 °F 60% 30.42 in 10.0 mi NE 6.9 mph - N/A   Clear
4:10 AM -2.2 °F -15.6 °F -13.0 °F 60% 30.42 in 10.0 mi NE 6.9 mph - N/A   Clear
4:29 AM -2.2 °F -12.5 °F -13.0 °F 60% 30.43 in 10.0 mi ENE 4.6 mph - N/A   Clear
4:49 AM -5.8 °F -14.5 °F -14.8 °F 65% 30.44 in 10.0 mi ENE 3.5 mph - N/A   Clear
5:10 AM -5.8 °F -14.5 °F -14.8 °F 65% 30.44 in 10.0 mi NE 3.5 mph - N/A   Clear
5:49 AM -7.6 °F -16.5 °F -14.8 °F 71% 30.44 in 10.0 mi ENE 3.5 mph - N/A   Clear
6:09 AM -13.0 °F - -20.2 °F 70% 30.45 in 10.0 mi Calm Calm - N/A   Clear
6:29 AM -13.0 °F - -18.4 °F 77% 30.44 in 10.0 mi Calm Calm - N/A   Clear
6:49 AM -14.8 °F -27.2 °F -22.0 °F 70% 30.43 in 10.0 mi NE 4.6 mph - N/A   Clear
7:09 AM -7.6 °F -22.1 °F -14.8 °F 71% 30.42 in 10.0 mi NE 6.9 mph - N/A   Clear
7:30 AM -5.8 °F -16.7 °F -11.2 °F 77% 30.40 in 10.0 mi NE 4.6 mph - N/A   Clear
7:49 AM -2.2 °F -15.6 °F -7.6 °F 78% 30.38 in 10.0 mi NE 6.9 mph - N/A   Clear
8:09 AM 3.2 °F -7.8 °F -4.0 °F 72% 30.37 in 10.0 mi NE 5.8 mph - N/A   Clear
8:30 AM 5.0 °F -8.1 °F -2.2 °F 72% 30.37 in 10.0 mi NE 8.1 mph - N/A   Clear
8:49 AM 6.8 °F -0.1 °F -2.2 °F 67% 30.39 in 10.0 mi East 3.5 mph - N/A   Clear
9:09 AM 5.0 °F - -4.0 °F 66% 30.45 in 10.0 mi Calm Calm - N/A   Clear
9:30 AM 8.6 °F 2.0 °F -0.4 °F 67% 30.46 in 10.0 mi South 3.5 mph - N/A   Clear
9:49 AM 10.4 °F 4.0 °F 1.4 °F 67% 30.46 in 10.0 mi SSE 3.5 mph - N/A   Clear
10:09 AM 12.2 °F - 3.2 °F 67% 30.45 in 10.0 mi Calm Calm - N/A   Clear
10:30 AM 14.0 °F 5.1 °F 5.0 °F 67% 30.43 in 10.0 mi SSE 5.8 mph - N/A   Clear
10:49 AM 15.8 °F 7.2 °F 5.0 °F 62% 30.41 in 10.0 mi ESE 5.8 mph - N/A   Clear
11:09 AM 15.8 °F 10.2 °F 5.0 °F 62% 30.42 in 10.0 mi East 3.5 mph - N/A   Clear
11:30 AM 17.6 °F 8.2 °F 5.0 °F 58% 30.40 in 10.0 mi East 6.9 mph - N/A   Clear
11:49 AM 17.6 °F 9.3 °F 5.0 °F 58% 30.41 in 10.0 mi SE 5.8 mph - N/A   Clear
12:09 PM 19.4 °F 10.4 °F 5.0 °F 54% 30.40 in 10.0 mi East 6.9 mph - N/A   Clear
12:30 PM 21.2 °F 11.7 °F 5.0 °F 50% 30.39 in 10.0 mi East 8.1 mph - N/A   Clear
12:50 PM 21.2 °F 12.6 °F 5.0 °F 50% 30.38 in 10.0 mi ESE 6.9 mph - N/A   Clear
1:09 PM 23.0 °F 15.8 °F 5.0 °F 46% 30.37 in 10.0 mi East 5.8 mph - N/A   Clear
1:29 PM 23.0 °F 18.4 °F 5.0 °F 46% 30.36 in 10.0 mi SE 3.5 mph - N/A   Clear
1:50 PM 23.0 °F 17.0 °F 5.0 °F 46% 30.35 in 10.0 mi ESE 4.6 mph - N/A   Clear
2:09 PM 23.0 °F 13.9 °F 6.8 °F 50% 30.34 in 10.0 mi ESE 8.1 mph - N/A   Clear
2:29 PM 24.8 °F 16.1 °F 6.8 °F 46% 30.33 in 10.0 mi SE 8.1 mph - N/A   Clear
2:50 PM 24.8 °F 19.1 °F 8.6 °F 50% 30.32 in 10.0 mi ESE 4.6 mph - N/A   Clear
3:09 PM 26.6 °F 20.0 °F 8.6 °F 47% 30.31 in 10.0 mi East 5.8 mph - N/A   Clear
3:29 PM 26.6 °F 18.2 °F 6.8 °F 43% 30.30 in 10.0 mi ENE 8.1 mph - N/A   Clear
3:49 PM 24.8 °F 17.9 °F 8.6 °F 50% 30.30 in 10.0 mi ESE 5.8 mph - N/A   Clear
4:09 PM 24.8 °F 17.9 °F 6.8 °F 46% 30.30 in 10.0 mi East 5.8 mph - N/A   Clear
4:30 PM 23.0 °F 13.9 °F 8.6 °F 54% 30.30 in 10.0 mi SE 8.1 mph - N/A   Clear
4:49 PM 23.0 °F 13.1 °F 10.4 °F 59% 30.30 in 10.0 mi SE 9.2 mph - N/A   Clear
5:09 PM 21.2 °F 10.9 °F 10.4 °F 63% 30.32 in 10.0 mi SE 9.2 mph - N/A   Clear
5:30 PM 19.4 °F 7.9 °F 10.4 °F 68% 30.32 in 10.0 mi SE 10.4 mph - N/A   Clear
5:49 PM 17.6 °F 6.4 °F 10.4 °F 73% 30.33 in 10.0 mi ESE 9.2 mph - N/A   Clear
6:09 PM 17.6 °F 8.2 °F 12.2 °F 79% 30.32 in 10.0 mi ESE 6.9 mph - N/A   Clear
6:30 PM 15.8 °F 8.6 °F 10.4 °F 79% 30.32 in 10.0 mi East 4.6 mph - N/A   Clear
6:49 PM 15.8 °F 8.6 °F 10.4 °F 79% 30.31 in 10.0 mi East 4.6 mph - N/A   Clear
7:09 PM 14.0 °F 8.2 °F 8.6 °F 79% 30.29 in 10.0 mi East 3.5 mph - N/A   Clear
7:30 PM 14.0 °F 6.5 °F 10.4 °F 86% 30.29 in 10.0 mi East 4.6 mph - N/A   Mostly Cloudy
7:49 PM 15.8 °F 10.2 °F 10.4 °F 79% 30.28 in 10.0 mi East 3.5 mph - N/A Snow Light Snow
8:09 PM 15.8 °F 10.2 °F 10.4 °F 79% 30.27 in 10.0 mi NE 3.5 mph - N/A Snow Light Snow
8:30 PM 15.8 °F 10.2 °F 10.4 °F 79% 30.27 in 10.0 mi ENE 3.5 mph - N/A Snow Light Snow
8:49 PM 15.8 °F 10.2 °F 10.4 °F 79% 30.26 in 10.0 mi NE 3.5 mph - N/A Snow Light Snow
9:09 PM 15.8 °F 8.6 °F 10.4 °F 79% 30.24 in 10.0 mi ENE 4.6 mph - N/A   Overcast
9:30 PM 15.8 °F 8.6 °F 12.2 °F 86% 30.23 in 10.0 mi ENE 4.6 mph - N/A   Overcast
9:49 PM 17.6 °F 9.3 °F 14.0 °F 86% 30.22 in 10.0 mi ENE 5.8 mph - N/A   Overcast
10:09 PM 17.6 °F 6.4 °F 15.8 °F 93% 30.22 in 10.0 mi East 9.2 mph - N/A   Overcast
10:30 PM 17.6 °F 8.2 °F 15.8 °F 93% 30.21 in 10.0 mi East 6.9 mph - N/A   Overcast
10:49 PM 19.4 °F 9.5 °F 17.6 °F 93% 30.20 in 10.0 mi East 8.1 mph - N/A   Overcast
11:10 PM 19.4 °F 11.5 °F 17.6 °F 93% 30.19 in 10.0 mi ENE 5.8 mph - N/A   Overcast
11:29 PM 19.4 °F 11.5 °F 17.6 °F 93% 30.18 in 7.0 mi ENE 5.8 mph - N/A   Overcast
11:49 PM 19.4 °F 11.5 °F 17.6 °F 93% 30.17 in 7.0 mi ENE 5.8 mph - N/A   Overcast